sensor_id;sensor_type;location;lat;lon;timestamp;P1;durP1;ratioP1;P2;durP2;ratioP2
13173;SDS011;6652;48.802;9.190;2023-12-28T00:01:32;5.72;;;2.58;;
13173;SDS011;6652;48.802;9.190;2023-12-28T00:03:59;4.25;;;2.20;;
13173;SDS011;6652;48.802;9.190;2023-12-28T00:06:26;4.50;;;2.20;;
13173;SDS011;6652;48.802;9.190;2023-12-28T00:08:53;5.18;;;2.22;;
13173;SDS011;6652;48.802;9.190;2023-12-28T00:11:19;3.25;;;2.15;;
13173;SDS011;6652;48.802;9.190;2023-12-28T00:13:46;5.13;;;2.47;;
13173;SDS011;6652;48.802;9.190;2023-12-28T00:16:13;4.05;;;2.17;;
13173;SDS011;6652;48.802;9.190;2023-12-28T00:18:41;3.95;;;1.90;;
13173;SDS011;6652;48.802;9.190;2023-12-28T00:21:08;3.60;;;1.88;;
13173;SDS011;6652;48.802;9.190;2023-12-28T00:23:35;4.45;;;1.98;;
13173;SDS011;6652;48.802;9.190;2023-12-28T00:26:01;4.68;;;1.60;;
13173;SDS011;6652;48.802;9.190;2023-12-28T00:28:28;3.72;;;1.80;;
13173;SDS011;6652;48.802;9.190;2023-12-28T00:30:55;4.63;;;2.85;;
13173;SDS011;6652;48.802;9.190;2023-12-28T00:33:22;6.60;;;3.28;;
13173;SDS011;6652;48.802;9.190;2023-12-28T00:35:50;4.72;;;1.90;;
13173;SDS011;6652;48.802;9.190;2023-12-28T00:38:17;2.67;;;1.80;;
13173;SDS011;6652;48.802;9.190;2023-12-28T00:40:43;3.55;;;2.10;;
13173;SDS011;6652;48.802;9.190;2023-12-28T00:43:10;3.85;;;1.77;;
13173;SDS011;6652;48.802;9.190;2023-12-28T00:45:37;4.55;;;1.90;;
13173;SDS011;6652;48.802;9.190;2023-12-28T00:48:04;4.53;;;1.80;;
13173;SDS011;6652;48.802;9.190;2023-12-28T00:50:31;4.45;;;2.08;;
13173;SDS011;6652;48.802;9.190;2023-12-28T00:52:59;3.33;;;1.75;;
13173;SDS011;6652;48.802;9.190;2023-12-28T00:55:26;4.05;;;1.83;;
13173;SDS011;6652;48.802;9.190;2023-12-28T00:57:53;3.80;;;1.70;;
13173;SDS011;6652;48.802;9.190;2023-12-28T01:00:20;2.60;;;1.50;;
13173;SDS011;6652;48.802;9.190;2023-12-28T01:02:47;2.35;;;1.60;;
13173;SDS011;6652;48.802;9.190;2023-12-28T01:05:14;8.15;;;2.72;;
13173;SDS011;6652;48.802;9.190;2023-12-28T01:07:42;4.60;;;1.95;;
13173;SDS011;6652;48.802;9.190;2023-12-28T01:10:10;4.25;;;1.92;;
13173;SDS011;6652;48.802;9.190;2023-12-28T01:12:37;2.83;;;1.75;;
13173;SDS011;6652;48.802;9.190;2023-12-28T01:15:04;3.47;;;2.03;;
13173;SDS011;6652;48.802;9.190;2023-12-28T01:17:32;2.38;;;1.35;;
13173;SDS011;6652;48.802;9.190;2023-12-28T01:19:59;4.65;;;1.60;;
13173;SDS011;6652;48.802;9.190;2023-12-28T01:22:26;3.38;;;1.75;;
13173;SDS011;6652;48.802;9.190;2023-12-28T01:24:53;6.43;;;1.63;;
13173;SDS011;6652;48.802;9.190;2023-12-28T01:27:21;3.75;;;2.03;;
13173;SDS011;6652;48.802;9.190;2023-12-28T01:29:48;2.58;;;1.40;;
13173;SDS011;6652;48.802;9.190;2023-12-28T01:32:15;4.00;;;1.80;;
13173;SDS011;6652;48.802;9.190;2023-12-28T01:34:41;6.68;;;2.17;;
13173;SDS011;6652;48.802;9.190;2023-12-28T01:37:08;3.20;;;1.70;;
13173;SDS011;6652;48.802;9.190;2023-12-28T01:39:35;4.00;;;2.05;;
13173;SDS011;6652;48.802;9.190;2023-12-28T01:42:02;3.85;;;1.95;;
13173;SDS011;6652;48.802;9.190;2023-12-28T01:44:31;6.75;;;2.88;;
13173;SDS011;6652;48.802;9.190;2023-12-28T01:46:58;5.70;;;2.40;;
13173;SDS011;6652;48.802;9.190;2023-12-28T01:49:25;5.43;;;2.33;;
13173;SDS011;6652;48.802;9.190;2023-12-28T01:51:52;5.25;;;2.00;;
13173;SDS011;6652;48.802;9.190;2023-12-28T01:54:19;5.15;;;2.03;;
13173;SDS011;6652;48.802;9.190;2023-12-28T01:56:46;3.08;;;2.00;;
13173;SDS011;6652;48.802;9.190;2023-12-28T01:59:13;3.88;;;1.88;;
13173;SDS011;6652;48.802;9.190;2023-12-28T02:01:41;4.60;;;1.83;;
13173;SDS011;6652;48.802;9.190;2023-12-28T02:04:08;4.78;;;2.17;;
13173;SDS011;6652;48.802;9.190;2023-12-28T02:06:35;4.32;;;1.92;;
13173;SDS011;6652;48.802;9.190;2023-12-28T02:09:02;3.95;;;2.05;;
13173;SDS011;6652;48.802;9.190;2023-12-28T02:11:29;3.55;;;1.90;;
13173;SDS011;6652;48.802;9.190;2023-12-28T02:13:56;4.07;;;1.83;;
13173;SDS011;6652;48.802;9.190;2023-12-28T02:16:25;2.97;;;1.75;;
13173;SDS011;6652;48.802;9.190;2023-12-28T02:18:56;2.83;;;1.73;;
13173;SDS011;6652;48.802;9.190;2023-12-28T02:21:25;3.58;;;1.88;;
13173;SDS011;6652;48.802;9.190;2023-12-28T02:23:52;4.85;;;2.10;;
13173;SDS011;6652;48.802;9.190;2023-12-28T02:26:21;3.05;;;1.70;;
13173;SDS011;6652;48.802;9.190;2023-12-28T02:28:47;3.38;;;1.50;;
13173;SDS011;6652;48.802;9.190;2023-12-28T02:31:17;2.70;;;1.73;;
13173;SDS011;6652;48.802;9.190;2023-12-28T02:33:48;1.90;;;1.60;;
13173;SDS011;6652;48.802;9.190;2023-12-28T02:36:18;3.60;;;1.70;;
13173;SDS011;6652;48.802;9.190;2023-12-28T02:38:48;3.97;;;1.83;;
13173;SDS011;6652;48.802;9.190;2023-12-28T02:41:17;4.68;;;1.80;;
13173;SDS011;6652;48.802;9.190;2023-12-28T02:43:47;2.17;;;1.70;;
13173;SDS011;6652;48.802;9.190;2023-12-28T02:46:14;5.15;;;1.88;;
13173;SDS011;6652;48.802;9.190;2023-12-28T02:48:42;5.13;;;1.95;;
13173;SDS011;6652;48.802;9.190;2023-12-28T02:51:09;3.00;;;1.70;;
13173;SDS011;6652;48.802;9.190;2023-12-28T02:53:36;4.20;;;1.70;;
13173;SDS011;6652;48.802;9.190;2023-12-28T02:56:03;5.78;;;1.90;;
13173;SDS011;6652;48.802;9.190;2023-12-28T02:58:30;4.40;;;2.25;;
13173;SDS011;6652;48.802;9.190;2023-12-28T03:00:59;3.17;;;1.90;;
13173;SDS011;6652;48.802;9.190;2023-12-28T03:03:25;3.30;;;1.63;;
13173;SDS011;6652;48.802;9.190;2023-12-28T03:05:52;2.50;;;1.80;;
13173;SDS011;6652;48.802;9.190;2023-12-28T03:08:19;4.43;;;1.90;;
13173;SDS011;6652;48.802;9.190;2023-12-28T03:10:46;4.00;;;1.88;;
13173;SDS011;6652;48.802;9.190;2023-12-28T03:13:13;3.47;;;1.80;;
13173;SDS011;6652;48.802;9.190;2023-12-28T03:15:39;2.78;;;1.60;;
13173;SDS011;6652;48.802;9.190;2023-12-28T03:18:07;5.30;;;1.88;;
13173;SDS011;6652;48.802;9.190;2023-12-28T03:20:36;3.58;;;1.50;;
13173;SDS011;6652;48.802;9.190;2023-12-28T03:23:03;6.70;;;2.10;;
13173;SDS011;6652;48.802;9.190;2023-12-28T03:25:30;4.43;;;1.98;;
13173;SDS011;6652;48.802;9.190;2023-12-28T03:27:59;2.75;;;1.55;;
13173;SDS011;6652;48.802;9.190;2023-12-28T03:30:25;3.38;;;1.85;;
13173;SDS011;6652;48.802;9.190;2023-12-28T03:32:52;4.28;;;1.80;;
13173;SDS011;6652;48.802;9.190;2023-12-28T03:35:20;2.53;;;1.65;;
13173;SDS011;6652;48.802;9.190;2023-12-28T03:37:47;3.97;;;2.17;;
13173;SDS011;6652;48.802;9.190;2023-12-28T03:40:14;4.35;;;1.77;;
13173;SDS011;6652;48.802;9.190;2023-12-28T03:42:41;2.55;;;1.60;;
13173;SDS011;6652;48.802;9.190;2023-12-28T03:45:09;4.90;;;1.88;;
13173;SDS011;6652;48.802;9.190;2023-12-28T03:47:36;4.15;;;2.10;;
13173;SDS011;6652;48.802;9.190;2023-12-28T03:50:03;3.60;;;2.15;;
13173;SDS011;6652;48.802;9.190;2023-12-28T03:52:32;2.58;;;1.80;;
13173;SDS011;6652;48.802;9.190;2023-12-28T03:54:59;3.78;;;1.63;;
13173;SDS011;6652;48.802;9.190;2023-12-28T03:57:26;4.15;;;1.90;;
13173;SDS011;6652;48.802;9.190;2023-12-28T03:59:53;4.07;;;1.73;;
13173;SDS011;6652;48.802;9.190;2023-12-28T04:02:20;6.57;;;1.73;;
13173;SDS011;6652;48.802;9.190;2023-12-28T04:04:46;3.67;;;1.67;;
13173;SDS011;6652;48.802;9.190;2023-12-28T04:07:14;5.25;;;2.03;;
13173;SDS011;6652;48.802;9.190;2023-12-28T04:09:42;6.57;;;1.80;;
13173;SDS011;6652;48.802;9.190;2023-12-28T04:12:11;3.90;;;2.08;;
13173;SDS011;6652;48.802;9.190;2023-12-28T04:14:37;3.25;;;1.60;;
13173;SDS011;6652;48.802;9.190;2023-12-28T04:17:04;3.10;;;1.52;;
13173;SDS011;6652;48.802;9.190;2023-12-28T04:19:31;3.20;;;1.80;;
13173;SDS011;6652;48.802;9.190;2023-12-28T04:21:58;2.30;;;1.33;;
13173;SDS011;6652;48.802;9.190;2023-12-28T04:24:25;3.88;;;1.60;;
13173;SDS011;6652;48.802;9.190;2023-12-28T04:26:53;1.88;;;1.23;;
13173;SDS011;6652;48.802;9.190;2023-12-28T04:29:22;4.45;;;1.75;;
13173;SDS011;6652;48.802;9.190;2023-12-28T04:31:49;2.67;;;1.90;;
13173;SDS011;6652;48.802;9.190;2023-12-28T04:34:16;3.08;;;1.73;;
13173;SDS011;6652;48.802;9.190;2023-12-28T04:36:43;4.68;;;2.50;;
13173;SDS011;6652;48.802;9.190;2023-12-28T04:39:11;4.47;;;1.80;;
13173;SDS011;6652;48.802;9.190;2023-12-28T04:41:38;3.88;;;1.75;;
13173;SDS011;6652;48.802;9.190;2023-12-28T04:44:06;3.38;;;1.40;;
13173;SDS011;6652;48.802;9.190;2023-12-28T04:46:37;3.05;;;1.20;;
13173;SDS011;6652;48.802;9.190;2023-12-28T04:49:05;2.70;;;1.50;;
13173;SDS011;6652;48.802;9.190;2023-12-28T04:51:32;2.58;;;1.55;;
13173;SDS011;6652;48.802;9.190;2023-12-28T04:53:59;3.20;;;1.60;;
13173;SDS011;6652;48.802;9.190;2023-12-28T04:56:25;4.85;;;1.58;;
13173;SDS011;6652;48.802;9.190;2023-12-28T04:58:52;2.85;;;1.42;;
13173;SDS011;6652;48.802;9.190;2023-12-28T05:01:22;3.25;;;1.77;;
13173;SDS011;6652;48.802;9.190;2023-12-28T05:03:49;3.85;;;1.70;;
13173;SDS011;6652;48.802;9.190;2023-12-28T05:06:16;2.97;;;1.50;;
13173;SDS011;6652;48.802;9.190;2023-12-28T05:08:43;3.53;;;1.48;;
13173;SDS011;6652;48.802;9.190;2023-12-28T05:11:10;5.07;;;1.35;;
13173;SDS011;6652;48.802;9.190;2023-12-28T05:13:37;2.67;;;1.77;;
13173;SDS011;6652;48.802;9.190;2023-12-28T05:16:03;2.78;;;1.40;;
13173;SDS011;6652;48.802;9.190;2023-12-28T05:18:33;2.90;;;1.52;;
13173;SDS011;6652;48.802;9.190;2023-12-28T05:21:00;3.63;;;1.98;;
13173;SDS011;6652;48.802;9.190;2023-12-28T05:23:27;3.60;;;1.70;;
13173;SDS011;6652;48.802;9.190;2023-12-28T05:25:53;2.85;;;1.48;;
13173;SDS011;6652;48.802;9.190;2023-12-28T05:28:20;3.25;;;1.70;;
13173;SDS011;6652;48.802;9.190;2023-12-28T05:30:47;3.20;;;1.75;;
13173;SDS011;6652;48.802;9.190;2023-12-28T05:33:14;2.45;;;1.13;;
13173;SDS011;6652;48.802;9.190;2023-12-28T05:35:42;3.35;;;1.85;;
13173;SDS011;6652;48.802;9.190;2023-12-28T05:38:09;3.67;;;1.60;;
13173;SDS011;6652;48.802;9.190;2023-12-28T05:40:36;4.72;;;1.67;;
13173;SDS011;6652;48.802;9.190;2023-12-28T05:43:02;5.75;;;1.73;;
13173;SDS011;6652;48.802;9.190;2023-12-28T05:45:29;2.53;;;1.48;;
13173;SDS011;6652;48.802;9.190;2023-12-28T05:47:56;2.67;;;1.60;;
13173;SDS011;6652;48.802;9.190;2023-12-28T05:50:23;3.53;;;1.63;;
13173;SDS011;6652;48.802;9.190;2023-12-28T05:52:51;2.08;;;1.50;;
13173;SDS011;6652;48.802;9.190;2023-12-28T05:55:18;2.42;;;1.48;;
13173;SDS011;6652;48.802;9.190;2023-12-28T05:57:45;3.85;;;2.00;;
13173;SDS011;6652;48.802;9.190;2023-12-28T06:00:12;3.20;;;1.77;;
13173;SDS011;6652;48.802;9.190;2023-12-28T06:02:40;4.22;;;1.85;;
13173;SDS011;6652;48.802;9.190;2023-12-28T06:05:06;2.75;;;1.42;;
13173;SDS011;6652;48.802;9.190;2023-12-28T06:07:33;7.55;;;1.48;;
13173;SDS011;6652;48.802;9.190;2023-12-28T06:10:02;3.45;;;1.42;;
13173;SDS011;6652;48.802;9.190;2023-12-28T06:12:29;2.38;;;1.45;;
13173;SDS011;6652;48.802;9.190;2023-12-28T06:14:56;4.57;;;1.30;;
13173;SDS011;6652;48.802;9.190;2023-12-28T06:17:23;2.20;;;1.20;;
13173;SDS011;6652;48.802;9.190;2023-12-28T06:19:50;7.32;;;1.45;;
13173;SDS011;6652;48.802;9.190;2023-12-28T06:22:17;4.10;;;1.40;;
13173;SDS011;6652;48.802;9.190;2023-12-28T06:24:44;4.35;;;1.38;;
13173;SDS011;6652;48.802;9.190;2023-12-28T06:27:14;2.08;;;1.35;;
13173;SDS011;6652;48.802;9.190;2023-12-28T06:29:41;2.88;;;1.30;;
13173;SDS011;6652;48.802;9.190;2023-12-28T06:32:08;2.03;;;1.33;;
13173;SDS011;6652;48.802;9.190;2023-12-28T06:34:35;2.47;;;1.40;;
13173;SDS011;6652;48.802;9.190;2023-12-28T06:37:01;3.33;;;1.63;;
13173;SDS011;6652;48.802;9.190;2023-12-28T06:39:28;2.30;;;1.00;;
13173;SDS011;6652;48.802;9.190;2023-12-28T06:41:55;3.67;;;1.58;;
13173;SDS011;6652;48.802;9.190;2023-12-28T06:44:23;3.25;;;1.38;;
13173;SDS011;6652;48.802;9.190;2023-12-28T06:49:23;2.92;;;1.40;;
13173;SDS011;6652;48.802;9.190;2023-12-28T06:51:50;3.20;;;1.65;;
13173;SDS011;6652;48.802;9.190;2023-12-28T06:54:17;2.20;;;1.45;;
13173;SDS011;6652;48.802;9.190;2023-12-28T06:56:43;2.55;;;1.50;;
13173;SDS011;6652;48.802;9.190;2023-12-28T06:59:10;4.20;;;1.88;;
13173;SDS011;6652;48.802;9.190;2023-12-28T07:01:38;3.28;;;1.40;;
13173;SDS011;6652;48.802;9.190;2023-12-28T07:04:05;4.18;;;2.00;;
13173;SDS011;6652;48.802;9.190;2023-12-28T07:06:32;3.65;;;1.48;;
13173;SDS011;6652;48.802;9.190;2023-12-28T07:08:59;3.50;;;1.60;;
13173;SDS011;6652;48.802;9.190;2023-12-28T07:11:26;3.72;;;1.67;;
13173;SDS011;6652;48.802;9.190;2023-12-28T07:13:52;3.38;;;1.42;;
13173;SDS011;6652;48.802;9.190;2023-12-28T07:16:19;4.15;;;1.70;;
13173;SDS011;6652;48.802;9.190;2023-12-28T07:18:47;3.42;;;1.60;;
13173;SDS011;6652;48.802;9.190;2023-12-28T07:21:14;5.32;;;2.17;;
13173;SDS011;6652;48.802;9.190;2023-12-28T07:23:41;6.70;;;3.30;;
13173;SDS011;6652;48.802;9.190;2023-12-28T07:26:13;9.63;;;4.40;;
13173;SDS011;6652;48.802;9.190;2023-12-28T07:28:41;9.30;;;3.47;;
13173;SDS011;6652;48.802;9.190;2023-12-28T07:31:09;8.65;;;3.83;;
13173;SDS011;6652;48.802;9.190;2023-12-28T07:33:36;7.22;;;3.70;;
13173;SDS011;6652;48.802;9.190;2023-12-28T07:36:05;7.18;;;4.10;;
13173;SDS011;6652;48.802;9.190;2023-12-28T07:38:32;7.18;;;3.75;;
13173;SDS011;6652;48.802;9.190;2023-12-28T07:40:58;9.10;;;4.22;;
13173;SDS011;6652;48.802;9.190;2023-12-28T07:43:25;9.60;;;3.78;;
13173;SDS011;6652;48.802;9.190;2023-12-28T07:45:53;7.38;;;3.50;;
13173;SDS011;6652;48.802;9.190;2023-12-28T07:48:20;13.45;;;3.40;;
13173;SDS011;6652;48.802;9.190;2023-12-28T07:50:46;8.65;;;3.85;;
13173;SDS011;6652;48.802;9.190;2023-12-28T07:53:15;8.02;;;3.55;;
13173;SDS011;6652;48.802;9.190;2023-12-28T07:55:42;9.40;;;4.10;;
13173;SDS011;6652;48.802;9.190;2023-12-28T07:58:09;7.68;;;4.45;;
13173;SDS011;6652;48.802;9.190;2023-12-28T08:00:35;14.57;;;4.70;;
13173;SDS011;6652;48.802;9.190;2023-12-28T08:03:03;10.35;;;3.75;;
13173;SDS011;6652;48.802;9.190;2023-12-28T08:05:30;9.77;;;3.55;;
13173;SDS011;6652;48.802;9.190;2023-12-28T08:07:57;14.50;;;3.78;;
13173;SDS011;6652;48.802;9.190;2023-12-28T08:10:25;9.50;;;4.40;;
13173;SDS011;6652;48.802;9.190;2023-12-28T08:12:52;8.68;;;3.72;;
13173;SDS011;6652;48.802;9.190;2023-12-28T08:15:19;9.57;;;4.43;;
13173;SDS011;6652;48.802;9.190;2023-12-28T08:17:45;9.85;;;3.28;;
13173;SDS011;6652;48.802;9.190;2023-12-28T08:20:14;13.93;;;3.22;;
13173;SDS011;6652;48.802;9.190;2023-12-28T08:22:41;15.25;;;4.32;;
13173;SDS011;6652;48.802;9.190;2023-12-28T08:25:17;9.10;;;4.13;;
13173;SDS011;6652;48.802;9.190;2023-12-28T08:27:45;7.00;;;3.83;;
13173;SDS011;6652;48.802;9.190;2023-12-28T08:30:12;9.35;;;3.83;;
13173;SDS011;6652;48.802;9.190;2023-12-28T08:32:39;8.90;;;4.03;;
13173;SDS011;6652;48.802;9.190;2023-12-28T08:35:06;17.33;;;4.22;;
13173;SDS011;6652;48.802;9.190;2023-12-28T08:37:33;7.43;;;3.75;;
13173;SDS011;6652;48.802;9.190;2023-12-28T08:40:00;14.65;;;3.72;;
13173;SDS011;6652;48.802;9.190;2023-12-28T08:42:29;13.98;;;4.43;;
13173;SDS011;6652;48.802;9.190;2023-12-28T08:44:57;10.05;;;3.92;;
13173;SDS011;6652;48.802;9.190;2023-12-28T08:47:24;17.38;;;3.90;;
13173;SDS011;6652;48.802;9.190;2023-12-28T08:49:50;11.65;;;4.28;;
13173;SDS011;6652;48.802;9.190;2023-12-28T08:52:17;6.25;;;3.58;;
13173;SDS011;6652;48.802;9.190;2023-12-28T08:54:44;10.75;;;4.53;;
13173;SDS011;6652;48.802;9.190;2023-12-28T08:57:11;11.77;;;3.97;;
13173;SDS011;6652;48.802;9.190;2023-12-28T08:59:38;12.40;;;3.83;;
13173;SDS011;6652;48.802;9.190;2023-12-28T09:02:07;9.65;;;4.03;;
13173;SDS011;6652;48.802;9.190;2023-12-28T09:04:34;8.23;;;4.05;;
13173;SDS011;6652;48.802;9.190;2023-12-28T09:07:00;17.90;;;4.30;;
13173;SDS011;6652;48.802;9.190;2023-12-28T09:09:28;18.95;;;4.60;;
13173;SDS011;6652;48.802;9.190;2023-12-28T09:11:55;13.43;;;4.45;;
13173;SDS011;6652;48.802;9.190;2023-12-28T09:14:22;18.98;;;4.70;;
13173;SDS011;6652;48.802;9.190;2023-12-28T09:16:48;17.27;;;4.20;;
13173;SDS011;6652;48.802;9.190;2023-12-28T09:19:17;12.38;;;4.40;;
13173;SDS011;6652;48.802;9.190;2023-12-28T09:21:43;10.73;;;4.35;;
13173;SDS011;6652;48.802;9.190;2023-12-28T09:24:10;12.55;;;4.47;;
13173;SDS011;6652;48.802;9.190;2023-12-28T09:26:37;9.85;;;4.25;;
13173;SDS011;6652;48.802;9.190;2023-12-28T09:29:04;15.18;;;5.25;;
13173;SDS011;6652;48.802;9.190;2023-12-28T09:31:30;28.65;;;12.00;;
13173;SDS011;6652;48.802;9.190;2023-12-28T09:33:57;21.90;;;9.48;;
13173;SDS011;6652;48.802;9.190;2023-12-28T09:36:26;12.93;;;4.68;;
13173;SDS011;6652;48.802;9.190;2023-12-28T09:38:52;11.55;;;4.68;;
13173;SDS011;6652;48.802;9.190;2023-12-28T09:41:19;7.47;;;4.22;;
13173;SDS011;6652;48.802;9.190;2023-12-28T09:43:53;13.00;;;4.50;;
13173;SDS011;6652;48.802;9.190;2023-12-28T09:46:23;9.35;;;4.28;;
13173;SDS011;6652;48.802;9.190;2023-12-28T09:48:51;9.70;;;3.83;;
13173;SDS011;6652;48.802;9.190;2023-12-28T09:51:19;13.60;;;5.00;;
13173;SDS011;6652;48.802;9.190;2023-12-28T09:54:00;12.30;;;4.30;;
13173;SDS011;6652;48.802;9.190;2023-12-28T09:56:28;14.35;;;4.90;;
13173;SDS011;6652;48.802;9.190;2023-12-28T09:58:56;13.50;;;4.80;;
13173;SDS011;6652;48.802;9.190;2023-12-28T10:01:23;15.80;;;4.57;;
13173;SDS011;6652;48.802;9.190;2023-12-28T10:03:51;10.25;;;4.30;;
13173;SDS011;6652;48.802;9.190;2023-12-28T10:06:18;13.02;;;3.97;;
13173;SDS011;6652;48.802;9.190;2023-12-28T10:08:46;9.88;;;3.63;;
13173;SDS011;6652;48.802;9.190;2023-12-28T10:11:15;8.40;;;3.72;;
13173;SDS011;6652;48.802;9.190;2023-12-28T10:13:43;8.27;;;3.38;;
13173;SDS011;6652;48.802;9.190;2023-12-28T10:16:10;6.30;;;2.03;;
13173;SDS011;6652;48.802;9.190;2023-12-28T10:18:39;7.10;;;2.17;;
13173;SDS011;6652;48.802;9.190;2023-12-28T10:21:07;8.75;;;2.20;;
13173;SDS011;6652;48.802;9.190;2023-12-28T10:23:34;6.65;;;2.97;;
13173;SDS011;6652;48.802;9.190;2023-12-28T10:26:02;7.20;;;1.52;;
13173;SDS011;6652;48.802;9.190;2023-12-28T10:28:32;5.85;;;1.48;;
13173;SDS011;6652;48.802;9.190;2023-12-28T10:31:01;3.42;;;1.52;;
13173;SDS011;6652;48.802;9.190;2023-12-28T10:33:28;3.38;;;1.42;;
13173;SDS011;6652;48.802;9.190;2023-12-28T10:36:02;3.90;;;1.42;;
13173;SDS011;6652;48.802;9.190;2023-12-28T10:38:32;3.03;;;1.25;;
13173;SDS011;6652;48.802;9.190;2023-12-28T10:41:01;2.03;;;1.23;;
13173;SDS011;6652;48.802;9.190;2023-12-28T10:43:32;2.80;;;0.88;;
13173;SDS011;6652;48.802;9.190;2023-12-28T10:46:07;5.85;;;1.40;;
13173;SDS011;6652;48.802;9.190;2023-12-28T10:48:36;6.72;;;1.25;;
13173;SDS011;6652;48.802;9.190;2023-12-28T10:51:07;2.60;;;1.27;;
13173;SDS011;6652;48.802;9.190;2023-12-28T10:53:37;4.38;;;1.00;;
13173;SDS011;6652;48.802;9.190;2023-12-28T10:56:10;3.05;;;1.50;;
13173;SDS011;6652;48.802;9.190;2023-12-28T10:58:48;5.00;;;1.20;;
13173;SDS011;6652;48.802;9.190;2023-12-28T11:01:22;3.60;;;1.23;;
13173;SDS011;6652;48.802;9.190;2023-12-28T11:03:52;5.57;;;1.42;;
13173;SDS011;6652;48.802;9.190;2023-12-28T11:06:24;0.95;;;0.90;;
13173;SDS011;6652;48.802;9.190;2023-12-28T11:08:53;2.08;;;1.10;;
13173;SDS011;6652;48.802;9.190;2023-12-28T11:11:21;4.43;;;1.60;;
13173;SDS011;6652;48.802;9.190;2023-12-28T11:13:50;7.78;;;1.00;;
13173;SDS011;6652;48.802;9.190;2023-12-28T11:16:17;3.90;;;1.85;;
13173;SDS011;6652;48.802;9.190;2023-12-28T11:18:45;4.28;;;1.73;;
13173;SDS011;6652;48.802;9.190;2023-12-28T11:21:12;4.43;;;1.88;;
13173;SDS011;6652;48.802;9.190;2023-12-28T11:23:39;2.58;;;1.10;;
13173;SDS011;6652;48.802;9.190;2023-12-28T11:26:15;1.70;;;0.98;;
13173;SDS011;6652;48.802;9.190;2023-12-28T11:28:42;1.80;;;1.05;;
13173;SDS011;6652;48.802;9.190;2023-12-28T11:31:10;4.97;;;1.02;;
13173;SDS011;6652;48.802;9.190;2023-12-28T11:33:43;2.35;;;1.52;;
13173;SDS011;6652;48.802;9.190;2023-12-28T11:36:10;2.95;;;1.48;;
13173;SDS011;6652;48.802;9.190;2023-12-28T11:38:37;2.53;;;0.93;;
13173;SDS011;6652;48.802;9.190;2023-12-28T11:41:06;1.95;;;1.00;;
13173;SDS011;6652;48.802;9.190;2023-12-28T11:43:34;1.08;;;0.73;;
13173;SDS011;6652;48.802;9.190;2023-12-28T11:46:02;3.60;;;1.25;;
13173;SDS011;6652;48.802;9.190;2023-12-28T11:48:32;1.88;;;1.10;;
13173;SDS011;6652;48.802;9.190;2023-12-28T11:50:59;3.33;;;1.10;;
13173;SDS011;6652;48.802;9.190;2023-12-28T11:53:26;4.45;;;1.00;;
13173;SDS011;6652;48.802;9.190;2023-12-28T11:55:59;1.05;;;0.90;;
13173;SDS011;6652;48.802;9.190;2023-12-28T12:00:54;2.05;;;1.00;;
13173;SDS011;6652;48.802;9.190;2023-12-28T12:03:24;1.42;;;1.10;;
13173;SDS011;6652;48.802;9.190;2023-12-28T12:05:52;1.83;;;1.10;;
13173;SDS011;6652;48.802;9.190;2023-12-28T12:08:22;1.10;;;0.90;;
13173;SDS011;6652;48.802;9.190;2023-12-28T12:10:59;2.20;;;1.17;;
13173;SDS011;6652;48.802;9.190;2023-12-28T12:13:26;2.35;;;1.15;;
13173;SDS011;6652;48.802;9.190;2023-12-28T12:15:53;5.93;;;2.78;;
13173;SDS011;6652;48.802;9.190;2023-12-28T12:18:30;2.78;;;1.30;;
13173;SDS011;6652;48.802;9.190;2023-12-28T12:20:59;1.45;;;1.15;;
13173;SDS011;6652;48.802;9.190;2023-12-28T12:23:26;2.22;;;1.10;;
13173;SDS011;6652;48.802;9.190;2023-12-28T12:25:53;2.55;;;1.00;;
13173;SDS011;6652;48.802;9.190;2023-12-28T12:28:20;2.40;;;0.95;;
13173;SDS011;6652;48.802;9.190;2023-12-28T12:30:50;9.23;;;3.55;;
13173;SDS011;6652;48.802;9.190;2023-12-28T12:33:19;2.30;;;1.20;;
13173;SDS011;6652;48.802;9.190;2023-12-28T12:35:46;2.13;;;1.08;;
13173;SDS011;6652;48.802;9.190;2023-12-28T12:38:15;5.00;;;1.30;;
13173;SDS011;6652;48.802;9.190;2023-12-28T12:40:42;2.53;;;1.20;;
13173;SDS011;6652;48.802;9.190;2023-12-28T12:43:10;4.05;;;1.50;;
13173;SDS011;6652;48.802;9.190;2023-12-28T12:45:36;3.25;;;1.23;;
13173;SDS011;6652;48.802;9.190;2023-12-28T12:48:04;5.07;;;1.83;;
13173;SDS011;6652;48.802;9.190;2023-12-28T12:50:32;3.85;;;1.33;;
13173;SDS011;6652;48.802;9.190;2023-12-28T12:52:59;2.28;;;1.13;;
13173;SDS011;6652;48.802;9.190;2023-12-28T12:55:27;2.92;;;1.55;;
13173;SDS011;6652;48.802;9.190;2023-12-28T12:57:55;2.47;;;1.38;;
13173;SDS011;6652;48.802;9.190;2023-12-28T13:00:23;4.00;;;2.15;;
13173;SDS011;6652;48.802;9.190;2023-12-28T13:02:50;2.78;;;1.08;;
13173;SDS011;6652;48.802;9.190;2023-12-28T13:05:18;1.67;;;0.88;;
13173;SDS011;6652;48.802;9.190;2023-12-28T13:07:45;4.32;;;1.17;;
13173;SDS011;6652;48.802;9.190;2023-12-28T13:10:12;3.15;;;1.50;;
13173;SDS011;6652;48.802;9.190;2023-12-28T13:12:40;1.48;;;0.98;;
13173;SDS011;6652;48.802;9.190;2023-12-28T13:15:07;4.35;;;1.30;;
13173;SDS011;6652;48.802;9.190;2023-12-28T13:17:35;2.28;;;1.00;;
13173;SDS011;6652;48.802;9.190;2023-12-28T13:20:02;3.97;;;1.55;;
13173;SDS011;6652;48.802;9.190;2023-12-28T13:22:30;1.10;;;1.00;;
13173;SDS011;6652;48.802;9.190;2023-12-28T13:24:57;3.90;;;1.38;;
13173;SDS011;6652;48.802;9.190;2023-12-28T13:27:24;2.00;;;1.00;;
13173;SDS011;6652;48.802;9.190;2023-12-28T13:29:53;8.23;;;3.80;;
13173;SDS011;6652;48.802;9.190;2023-12-28T13:32:20;4.03;;;1.52;;
13173;SDS011;6652;48.802;9.190;2023-12-28T13:34:48;3.38;;;1.30;;
13173;SDS011;6652;48.802;9.190;2023-12-28T13:37:15;3.45;;;1.83;;
13173;SDS011;6652;48.802;9.190;2023-12-28T13:39:42;4.00;;;1.33;;
13173;SDS011;6652;48.802;9.190;2023-12-28T13:42:09;3.78;;;1.25;;
13173;SDS011;6652;48.802;9.190;2023-12-28T13:44:36;2.65;;;1.30;;
13173;SDS011;6652;48.802;9.190;2023-12-28T13:47:04;1.58;;;1.23;;
13173;SDS011;6652;48.802;9.190;2023-12-28T13:49:32;2.55;;;1.25;;
13173;SDS011;6652;48.802;9.190;2023-12-28T13:51:58;3.92;;;1.20;;
13173;SDS011;6652;48.802;9.190;2023-12-28T13:54:25;2.50;;;1.40;;
13173;SDS011;6652;48.802;9.190;2023-12-28T13:56:52;6.38;;;2.40;;
13173;SDS011;6652;48.802;9.190;2023-12-28T13:59:22;1.92;;;1.30;;
13173;SDS011;6652;48.802;9.190;2023-12-28T14:01:49;5.05;;;1.70;;
13173;SDS011;6652;48.802;9.190;2023-12-28T14:04:17;4.63;;;1.70;;
13173;SDS011;6652;48.802;9.190;2023-12-28T14:06:44;3.53;;;1.63;;
13173;SDS011;6652;48.802;9.190;2023-12-28T14:09:11;3.10;;;1.60;;
13173;SDS011;6652;48.802;9.190;2023-12-28T14:11:39;2.60;;;1.60;;
13173;SDS011;6652;48.802;9.190;2023-12-28T14:14:06;3.15;;;1.70;;
13173;SDS011;6652;48.802;9.190;2023-12-28T14:16:33;11.38;;;1.70;;
13173;SDS011;6652;48.802;9.190;2023-12-28T14:18:59;2.03;;;1.33;;
13173;SDS011;6652;48.802;9.190;2023-12-28T14:21:28;3.50;;;1.40;;
13173;SDS011;6652;48.802;9.190;2023-12-28T14:23:55;3.35;;;1.40;;
13173;SDS011;6652;48.802;9.190;2023-12-28T14:26:22;2.35;;;1.27;;
13173;SDS011;6652;48.802;9.190;2023-12-28T14:28:50;2.00;;;1.40;;
13173;SDS011;6652;48.802;9.190;2023-12-28T14:31:17;1.17;;;0.85;;
13173;SDS011;6652;48.802;9.190;2023-12-28T14:33:44;4.70;;;1.75;;
13173;SDS011;6652;48.802;9.190;2023-12-28T14:36:15;3.70;;;1.48;;
13173;SDS011;6652;48.802;9.190;2023-12-28T14:38:51;3.28;;;1.30;;
13173;SDS011;6652;48.802;9.190;2023-12-28T14:41:18;1.98;;;1.50;;
13173;SDS011;6652;48.802;9.190;2023-12-28T14:43:45;2.45;;;1.35;;
13173;SDS011;6652;48.802;9.190;2023-12-28T14:46:12;4.13;;;1.40;;
13173;SDS011;6652;48.802;9.190;2023-12-28T14:48:39;2.58;;;1.40;;
13173;SDS011;6652;48.802;9.190;2023-12-28T14:51:06;4.63;;;1.45;;
13173;SDS011;6652;48.802;9.190;2023-12-28T14:53:33;1.65;;;1.10;;
13173;SDS011;6652;48.802;9.190;2023-12-28T14:56:01;3.33;;;1.65;;
13173;SDS011;6652;48.802;9.190;2023-12-28T14:58:28;2.55;;;1.77;;
13173;SDS011;6652;48.802;9.190;2023-12-28T15:00:55;1.90;;;1.30;;
13173;SDS011;6652;48.802;9.190;2023-12-28T15:03:22;2.35;;;1.38;;
13173;SDS011;6652;48.802;9.190;2023-12-28T15:05:50;3.22;;;1.73;;
13173;SDS011;6652;48.802;9.190;2023-12-28T15:08:17;6.43;;;1.80;;